Time;durP1;ratioP1;P1;durP2;ratioP2;P2;SDS_P1;SDS_P2;PMS_P1;PMS_P2;Temp;Humidity;BMP_temperature;BMP_pressure;BME280_temperature;BME280_humidity;BME280_pressure;Samples;Min_cycle;Max_cycle;Signal;HPM_P1;HPM_P2
2022/01/15 00:01:36;;;;;;;;;;;;;;;-144.99;100.00;52684.53;4946981;28;19926;-61
2022/01/15 00:04:03;;;;;;;;;;;;;;;-144.99;100.00;52733.47;4946921;28;19934;-62
2022/01/15 00:06:31;;;;;;;;;;;;;;;-144.99;100.00;52704.94;4939812;28;19934;-63
2022/01/15 00:08:57;;;;;;;;;;;;;;;-144.99;100.00;52757.94;4991260;28;19929;-62
2022/01/15 00:11:23;;;;;;;;;;;;;;;-144.99;100.00;52656.00;4946308;28;19931;-62
2022/01/15 00:13:55;;;;;;;;;;;;;;;-144.99;100.00;52733.47;4945747;28;20116;-60
2022/01/15 00:16:31;;;;;;;;;;;;;;;-144.99;100.00;52690.66;4946571;28;19927;-62
2022/01/15 00:19:05;;;;;;;;;;;;;;;-144.99;100.00;52700.84;4946738;28;19938;-62
2022/01/15 00:21:33;;;;;;;;;;;;;;;-144.99;100.00;52672.31;4946179;28;20013;-62
2022/01/15 00:23:59;;;;;;;;;;;;;;;-144.99;100.00;52688.63;4985501;28;19929;-62
2022/01/15 00:26:25;;;;;;;;;;;;;;;-144.99;100.00;52623.38;4975088;28;20175;-62
2022/01/15 00:28:52;;;;;;;;;;;;;;;-144.99;100.00;52700.84;4956330;28;20457;-61
2022/01/15 00:31:18;;;;;;;;;;;;;;;-144.99;100.00;52721.22;4945245;28;19934;-61
2022/01/15 00:33:45;;;;;;;;;;;;;;;-144.99;100.00;52696.78;4943367;28;19934;-62
2022/01/15 00:36:11;;;;;;;;;;;;;;;-144.99;100.00;52713.09;4952837;28;19930;-61
2022/01/15 00:38:39;;;;;;;;;;;;;;;-144.99;100.00;52735.50;4947348;28;19931;-64
2022/01/15 00:41:05;;;;;;;;;;;;;;;-144.99;100.00;52723.28;4948040;28;19926;-62
2022/01/15 00:43:41;;;;;;;;;;;;;;;-144.99;100.00;52700.84;4893490;23;9999906;-63
2022/01/15 00:46:07;;;;;;;;;;;;;;;-144.99;100.00;52690.66;5002789;28;19930;-62
2022/01/15 00:48:34;;;;;;;;;;;;;;;-144.99;100.00;52741.63;4966323;28;19930;-61
2022/01/15 00:51:00;;;;;;;;;;;;;;;-144.99;100.00;52700.84;4966215;28;19942;-58
2022/01/15 00:53:26;;;;;;;;;;;;;;;-144.99;100.00;52668.22;4968419;28;20358;-61
2022/01/15 00:55:54;;;;;;;;;;;;;;;-144.99;100.00;52729.38;4967036;28;19934;-59
2022/01/15 00:58:21;;;;;;;;;;;;;;;-144.99;100.00;52647.84;4961531;28;19926;-58
2022/01/15 01:00:47;;;;;;;;;;;;;;;-144.99;100.00;52692.69;4950627;28;19932;-59
2022/01/15 01:03:13;;;;;;;;;;;;;;;-144.99;100.00;52700.84;4961049;28;19926;-61
2022/01/15 01:05:40;;;;;;;;;;;;;;;-144.99;100.00;52721.22;4976424;28;20370;-62
2022/01/15 01:08:06;;;;;;;;;;;;;;;-144.99;100.00;52715.13;4966524;28;19930;-62
2022/01/15 01:10:49;;;;;;;;;;;;;;;-144.99;100.00;52692.69;4968251;28;19934;-62
2022/01/15 01:24:20;;;;;;;;;;;;;;;-144.99;100.00;52696.78;4976321;28;19926;-62
2022/01/15 01:26:53;;;;;;;;;;;;;;;-144.99;100.00;52719.19;4968940;28;19966;-61
2022/01/15 01:29:30;;;;;;;;;;;;;;;-144.99;100.00;52709.00;4968095;28;20400;-58
2022/01/15 01:32:01;;;;;;;;;;;;;;;-144.99;100.00;52721.22;4968546;28;20014;-58
2022/01/15 01:34:30;;;;;;;;;;;;;;;-144.99;100.00;52727.34;4967671;28;19949;-57
2022/01/15 01:37:03;;;;;;;;;;;;;;;-144.99;100.00;52713.09;4969513;28;19970;-60
2022/01/15 01:39:38;;;;;;;;;;;;;;;-144.99;100.00;52717.16;4967881;28;19948;-57
2022/01/15 01:42:11;;;;;;;;;;;;;;;-144.99;100.00;52733.47;4955322;28;19933;-56
2022/01/15 01:44:41;;;;;;;;;;;;;;;-144.99;100.00;52709.00;4967960;28;19980;-57
2022/01/15 01:47:18;;;;;;;;;;;;;;;-144.99;100.00;52684.53;4971061;28;19926;-59
2022/01/15 01:49:45;;;;;;;;;;;;;;;-144.99;100.00;52666.19;4974097;28;20357;-58
2022/01/15 01:52:11;;;;;;;;;;;;;;;-144.99;100.00;52694.72;4948883;28;19937;-59
2022/01/15 01:54:37;;;;;;;;;;;;;;;-144.99;100.00;52700.84;4962993;28;19953;-57
2022/01/15 01:57:04;;;;;;;;;;;;;;;-144.99;100.00;52688.63;4969204;28;19934;-58
2022/01/15 01:59:31;;;;;;;;;;;;;;;-144.99;100.00;52647.84;4965021;28;19926;-58
2022/01/15 02:01:58;;;;;;;;;;;;;;;-144.99;100.00;52688.63;4957798;28;19930;-57
2022/01/15 02:04:25;;;;;;;;;;;;;;;-144.99;100.00;52696.78;4966997;28;19938;-56
2022/01/15 02:06:51;;;;;;;;;;;;;;;-144.99;100.00;52717.16;4969022;28;20236;-57
2022/01/15 02:09:20;;;;;;;;;;;;;;;-144.99;100.00;52709.00;4966576;28;19927;-58
2022/01/15 02:11:47;;;;;;;;;;;;;;;-144.99;100.00;52651.94;4948905;28;19980;-56
2022/01/15 02:14:24;;;;;;;;;;;;;;;-144.99;100.00;52688.63;4962420;28;19926;-57
2022/01/15 02:16:50;;;;;;;;;;;;;;;-144.99;100.00;52704.94;4972710;28;19926;-57
2022/01/15 02:19:18;;;;;;;;;;;;;;;-144.99;100.00;52713.09;4954849;28;20390;-57
2022/01/15 02:24:29;;;;;;;;;;;;;;;-144.99;100.00;52688.63;4960537;28;20428;-57
2022/01/15 02:26:56;;;;;;;;;;;;;;;-144.99;100.00;52696.78;4963922;28;20492;-59
2022/01/15 02:29:22;;;;;;;;;;;;;;;-144.99;100.00;52696.78;4967277;28;19926;-58
2022/01/15 02:31:48;;;;;;;;;;;;;;;-144.99;100.00;52680.47;4967467;28;19926;-58
2022/01/15 02:34:15;;;;;;;;;;;;;;;-144.99;100.00;52723.28;4966854;28;19927;-58
2022/01/15 02:36:41;;;;;;;;;;;;;;;-144.99;100.00;52658.03;4967679;28;19930;-57
2022/01/15 02:39:09;;;;;;;;;;;;;;;-144.99;100.00;52684.53;4971909;28;19942;-64
2022/01/15 02:41:36;;;;;;;;;;;;;;;-144.99;100.00;52692.69;4961624;28;19926;-63
2022/01/15 02:44:04;;;;;;;;;;;;;;;-144.99;100.00;52709.00;4967581;28;19941;-64
2022/01/15 02:48:00;;;;;;;;;;;;;;;-144.99;100.00;52662.13;4967277;28;19926;-64
2022/01/15 02:49:23;;;;;;;;;;;;;;;-144.99;100.00;52696.78;4962245;28;20091;-61
2022/01/15 02:51:49;;;;;;;;;;;;;;;-144.99;100.00;52684.53;4966863;28;19926;-62
2022/01/15 02:54:17;;;;;;;;;;;;;;;-144.99;100.00;52684.53;4967446;28;19933;-58
2022/01/15 02:56:44;;;;;;;;;;;;;;;-144.99;100.00;52713.09;4961561;28;20336;-60
2022/01/15 02:59:11;;;;;;;;;;;;;;;-144.99;100.00;52670.28;4974478;28;19937;-58
2022/01/15 03:01:37;;;;;;;;;;;;;;;-144.99;100.00;52692.69;4971966;28;19925;-58
2022/01/15 03:04:04;;;;;;;;;;;;;;;-144.99;100.00;52719.19;4961876;28;19926;-58
2022/01/15 03:06:30;;;;;;;;;;;;;;;-144.99;100.00;52668.22;4951637;28;19926;-58
2022/01/15 03:08:56;;;;;;;;;;;;;;;-144.99;100.00;52721.22;4971784;28;19930;-59
2022/01/15 03:11:24;;;;;;;;;;;;;;;-144.99;100.00;52700.84;4966936;28;19927;-59
2022/01/15 03:13:51;;;;;;;;;;;;;;;-144.99;100.00;52660.09;4967030;28;19934;-59
2022/01/15 03:16:20;;;;;;;;;;;;;;;-144.99;100.00;52694.72;4966499;28;19930;-59
2022/01/15 03:18:47;;;;;;;;;;;;;;;-144.99;100.00;52717.16;4969635;28;19930;-58
2022/01/15 03:21:14;;;;;;;;;;;;;;;-144.99;100.00;52729.38;4949412;28;19934;-60
2022/01/15 03:23:40;;;;;;;;;;;;;;;-144.99;100.00;52713.09;4960118;28;19926;-59
2022/01/15 03:26:08;;;;;;;;;;;;;;;-144.99;100.00;52723.28;4966898;28;20004;-59
2022/01/15 03:28:36;;;;;;;;;;;;;;;-144.99;100.00;52688.63;4954008;28;19930;-60
2022/01/15 03:31:03;;;;;;;;;;;;;;;-144.99;100.00;52702.88;4970273;28;20018;-59
2022/01/15 03:33:29;;;;;;;;;;;;;;;-144.99;100.00;52721.22;4960772;28;19938;-60
2022/01/15 03:35:56;;;;;;;;;;;;;;;-144.99;100.00;52717.16;4966579;28;19995;-59
2022/01/15 03:38:22;;;;;;;;;;;;;;;-144.99;100.00;52702.88;4966722;28;20160;-60
2022/01/15 03:40:51;;;;;;;;;;;;;;;-144.99;100.00;52713.09;4963295;28;19937;-61
2022/01/15 03:43:18;;;;;;;;;;;;;;;-144.99;100.00;52688.63;4961972;28;20024;-63
2022/01/15 03:45:45;;;;;;;;;;;;;;;-144.99;100.00;52688.63;4966802;28;19948;-64
2022/01/15 03:48:12;;;;;;;;;;;;;;;-144.99;100.00;52688.63;4966843;28;20016;-62
2022/01/15 03:50:38;;;;;;;;;;;;;;;-144.99;100.00;52709.00;4964464;28;19926;-62
2022/01/15 03:53:04;;;;;;;;;;;;;;;-144.99;100.00;52692.69;4962666;28;19960;-61
2022/01/15 03:55:31;;;;;;;;;;;;;;;-144.99;100.00;52694.72;4966040;28;19933;-60
2022/01/15 03:57:59;;;;;;;;;;;;;;;-144.99;100.00;52709.00;4966328;28;19926;-60
2022/01/15 04:00:26;;;;;;;;;;;;;;;-144.99;100.00;52696.78;4967169;28;19948;-60
2022/01/15 04:02:55;;;;;;;;;;;;;;;-144.99;100.00;52704.94;4966624;28;20035;-60
2022/01/15 04:05:22;;;;;;;;;;;;;;;-144.99;100.00;52700.84;4966575;28;19953;-60
2022/01/15 04:07:48;;;;;;;;;;;;;;;-144.99;100.00;52717.16;4966202;28;19942;-60
2022/01/15 04:10:16;;;;;;;;;;;;;;;-144.99;100.00;52704.94;4972467;28;19941;-59
2022/01/15 04:12:42;;;;;;;;;;;;;;;-144.99;100.00;52713.09;4958907;28;20002;-60
2022/01/15 04:15:09;;;;;;;;;;;;;;;-144.99;100.00;52737.53;4959495;28;19930;-60
2022/01/15 04:17:36;;;;;;;;;;;;;;;-144.99;100.00;52729.38;4980087;28;19927;-60
2022/01/15 04:20:04;;;;;;;;;;;;;;;-144.99;100.00;52717.16;4961486;28;19937;-59
2022/01/15 04:22:30;;;;;;;;;;;;;;;-144.99;100.00;52709.00;4966791;28;19952;-59
2022/01/15 04:24:57;;;;;;;;;;;;;;;-144.99;100.00;52692.69;4969185;28;19932;-59
2022/01/15 04:27:23;;;;;;;;;;;;;;;-144.99;100.00;52688.63;4966775;28;20375;-59
2022/01/15 04:29:50;;;;;;;;;;;;;;;-144.99;100.00;52766.09;4960730;28;20347;-58
2022/01/15 04:32:16;;;;;;;;;;;;;;;-144.99;100.00;52692.69;4977853;28;19926;-59
2022/01/15 04:34:43;;;;;;;;;;;;;;;-144.99;100.00;52717.16;4960554;28;19937;-59
2022/01/15 04:37:14;;;;;;;;;;;;;;;-144.99;100.00;52729.38;4970224;28;19926;-59
2022/01/15 04:39:42;;;;;;;;;;;;;;;-144.99;100.00;52725.31;4981474;28;20361;-59
2022/01/15 04:42:08;;;;;;;;;;;;;;;-144.99;100.00;52729.38;4964806;28;19926;-59
2022/01/15 04:44:35;;;;;;;;;;;;;;;-144.99;100.00;52729.38;4950607;28;19927;-59
2022/01/15 04:47:03;;;;;;;;;;;;;;;-144.99;100.00;52727.34;4968958;28;19972;-59
2022/01/15 04:49:29;;;;;;;;;;;;;;;-144.99;100.00;52696.78;4969396;28;19926;-59
2022/01/15 04:51:56;;;;;;;;;;;;;;;-144.99;100.00;52692.69;4972446;28;19942;-59
2022/01/15 04:54:23;;;;;;;;;;;;;;;-144.99;100.00;52688.63;4963313;28;19942;-59
2022/01/15 04:56:50;;;;;;;;;;;;;;;-144.99;100.00;52729.38;4959697;28;19974;-59
2022/01/15 04:59:16;;;;;;;;;;;;;;;-144.99;100.00;52688.63;4969138;28;19948;-59
2022/01/15 05:01:42;;;;;;;;;;;;;;;-144.99;100.00;52686.59;4970511;28;20317;-58
2022/01/15 05:04:09;;;;;;;;;;;;;;;-144.99;100.00;52706.97;4962248;28;20344;-59
2022/01/15 05:06:35;;;;;;;;;;;;;;;-144.99;100.00;52704.94;4956146;28;19934;-58
2022/01/15 05:09:05;;;;;;;;;;;;;;;-144.99;100.00;52692.69;4968487;28;19934;-59
2022/01/15 05:11:44;;;;;;;;;;;;;;;-144.99;100.00;52684.53;4950587;28;19954;-59
2022/01/15 05:14:11;;;;;;;;;;;;;;;-144.99;100.00;52704.94;4956348;28;19933;-58
2022/01/15 05:16:38;;;;;;;;;;;;;;;-144.99;100.00;52725.31;4957750;28;19973;-54
2022/01/15 05:19:05;;;;;;;;;;;;;;;-144.99;100.00;52717.16;4968739;28;20322;-55
2022/01/15 05:21:32;;;;;;;;;;;;;;;-144.99;100.00;52713.09;4968360;28;20373;-54
2022/01/15 05:23:58;;;;;;;;;;;;;;;-144.99;100.00;52713.09;4970044;28;19937;-55
2022/01/15 05:26:24;;;;;;;;;;;;;;;-144.99;100.00;52735.50;4966140;28;19933;-56
2022/01/15 05:28:52;;;;;;;;;;;;;;;-144.99;100.00;52717.16;4969550;28;19930;-55
2022/01/15 05:31:18;;;;;;;;;;;;;;;-144.99;100.00;52733.47;4968511;28;19958;-57
2022/01/15 05:33:45;;;;;;;;;;;;;;;-144.99;100.00;52713.09;4968231;28;20343;-56
2022/01/15 05:36:11;;;;;;;;;;;;;;;-144.99;100.00;52727.34;4958866;28;19933;-59
2022/01/15 05:38:38;;;;;;;;;;;;;;;-144.99;100.00;52676.38;4968598;28;20349;-57
2022/01/15 05:41:04;;;;;;;;;;;;;;;-144.99;100.00;52704.94;4969098;28;19948;-57
2022/01/15 05:43:30;;;;;;;;;;;;;;;-144.99;100.00;52709.00;4979148;28;19926;-58
2022/01/15 05:45:58;;;;;;;;;;;;;;;-144.99;100.00;52680.47;4968351;28;19926;-58
2022/01/15 05:48:24;;;;;;;;;;;;;;;-144.99;100.00;52713.09;4949323;28;19927;-60
2022/01/15 05:50:51;;;;;;;;;;;;;;;-144.99;100.00;52713.09;4960107;28;19930;-59
2022/01/15 05:53:17;;;;;;;;;;;;;;;-144.99;100.00;52735.50;4965984;28;20026;-59
2022/01/15 05:55:43;;;;;;;;;;;;;;;-144.99;100.00;52725.31;4959487;28;19933;-60
2022/01/15 05:58:10;;;;;;;;;;;;;;;-144.99;100.00;52739.56;4968556;28;19926;-60
2022/01/15 06:00:36;;;;;;;;;;;;;;;-144.99;100.00;52692.69;4957221;28;20455;-59
2022/01/15 06:03:04;;;;;;;;;;;;;;;-144.99;100.00;52719.19;4950703;28;19953;-60
2022/01/15 06:05:30;;;;;;;;;;;;;;;-144.99;100.00;52696.78;4968209;28;19938;-60
2022/01/15 06:07:57;;;;;;;;;;;;;;;-144.99;100.00;52757.94;4968714;28;19934;-58
2022/01/15 06:10:23;;;;;;;;;;;;;;;-144.99;100.00;52694.72;4958801;28;19926;-58
2022/01/15 06:12:50;;;;;;;;;;;;;;;-144.99;100.00;52735.50;4965096;28;19953;-59
2022/01/15 06:15:16;;;;;;;;;;;;;;;-144.99;100.00;52684.53;4963920;28;19933;-58
2022/01/15 06:17:43;;;;;;;;;;;;;;;-144.99;100.00;52713.09;4965577;28;20322;-57
2022/01/15 06:20:12;;;;;;;;;;;;;;;-144.99;100.00;52678.44;4968341;28;19934;-60
2022/01/15 06:22:38;;;;;;;;;;;;;;;-144.99;100.00;52717.16;4967955;28;20112;-61
2022/01/15 06:25:05;;;;;;;;;;;;;;;-144.99;100.00;52688.63;4968254;28;19933;-62
2022/01/15 06:27:32;;;;;;;;;;;;;;;-144.99;100.00;52737.53;4963503;28;19934;-61
2022/01/15 06:29:58;;;;;;;;;;;;;;;-144.99;100.00;52731.44;4949147;28;19933;-61
2022/01/15 06:32:25;;;;;;;;;;;;;;;-144.99;100.00;52721.22;4966369;28;19926;-59
2022/01/15 06:34:52;;;;;;;;;;;;;;;-144.99;100.00;52713.09;4973400;28;19926;-61
2022/01/15 06:37:19;;;;;;;;;;;;;;;-144.99;100.00;52713.09;4968768;28;19926;-59
2022/01/15 06:39:46;;;;;;;;;;;;;;;-144.99;100.00;52711.03;4968039;28;19949;-60
2022/01/15 06:42:13;;;;;;;;;;;;;;;-144.99;100.00;52729.38;4975959;28;19927;-59
2022/01/15 06:44:39;;;;;;;;;;;;;;;-144.99;100.00;52688.63;4961857;28;19926;-56
2022/01/15 06:47:05;;;;;;;;;;;;;;;-144.99;100.00;52731.44;4967919;28;20057;-58
2022/01/15 06:49:32;;;;;;;;;;;;;;;-144.99;100.00;52713.09;4967586;28;19934;-58
2022/01/15 06:51:58;;;;;;;;;;;;;;;-144.99;100.00;52676.38;4968069;28;19926;-58
2022/01/15 06:54:28;;;;;;;;;;;;;;;-144.99;100.00;52725.31;4967398;28;19933;-58
2022/01/15 06:59:28;;;;;;;;;;;;;;;-144.99;100.00;52713.09;4967514;28;20377;-70
2022/01/15 07:01:54;;;;;;;;;;;;;;;-144.99;100.00;52717.16;4970453;28;19926;-68
2022/01/15 07:04:20;;;;;;;;;;;;;;;-144.99;100.00;52721.22;4970183;28;19927;-69
2022/01/15 07:06:47;;;;;;;;;;;;;;;-144.99;100.00;52713.09;4970458;28;20379;-66
2022/01/15 07:09:14;;;;;;;;;;;;;;;-144.99;100.00;52725.31;4969704;28;19970;-63
2022/01/15 07:11:41;;;;;;;;;;;;;;;-144.99;100.00;52753.84;4957550;28;19930;-67
2022/01/15 07:14:08;;;;;;;;;;;;;;;-144.99;100.00;52709.00;4969687;28;19926;-67
2022/01/15 07:16:36;;;;;;;;;;;;;;;-144.99;100.00;52729.38;4976159;28;19932;-68
2022/01/15 07:19:02;;;;;;;;;;;;;;;-144.99;100.00;52741.63;4960939;28;19938;-67
2022/01/15 07:21:29;;;;;;;;;;;;;;;-144.99;100.00;52700.84;4957921;28;19980;-69
2022/01/15 07:23:55;;;;;;;;;;;;;;;-144.99;100.00;52694.72;4969240;28;19948;-68
2022/01/15 07:26:21;;;;;;;;;;;;;;;-144.99;100.00;52713.09;4973126;28;19926;-68
2022/01/15 07:28:49;;;;;;;;;;;;;;;-144.99;100.00;52757.94;4977434;28;19936;-68
2022/01/15 07:31:16;;;;;;;;;;;;;;;-144.99;100.00;52688.63;4972824;28;19933;-68
2022/01/15 07:33:42;;;;;;;;;;;;;;;-144.99;100.00;52733.47;4972390;28;19968;-68
2022/01/15 07:36:08;;;;;;;;;;;;;;;-144.99;100.00;52729.38;4973446;28;20149;-62
2022/01/15 07:38:35;;;;;;;;;;;;;;;-144.99;100.00;52719.19;4985431;28;20302;-62
2022/01/15 07:41:02;;;;;;;;;;;;;;;-144.99;100.00;52725.31;4971833;28;19926;-62
2022/01/15 07:43:29;;;;;;;;;;;;;;;-144.99;100.00;52762.00;4960749;28;20017;-63
2022/01/15 07:45:57;;;;;;;;;;;;;;;-144.99;100.00;52731.44;4973229;28;19926;-62
2022/01/15 07:48:23;;;;;;;;;;;;;;;-144.99;100.00;52743.66;4973910;28;19941;-62
2022/01/15 07:50:49;;;;;;;;;;;;;;;-144.99;100.00;52709.00;4973167;28;20363;-62
2022/01/15 07:53:16;;;;;;;;;;;;;;;-144.99;100.00;52680.47;4973175;28;19928;-64
2022/01/15 07:55:42;;;;;;;;;;;;;;;-144.99;100.00;52725.31;4977008;28;19926;-64
2022/01/15 07:58:10;;;;;;;;;;;;;;;-144.99;100.00;52723.28;4969684;28;20397;-66
2022/01/15 08:00:36;;;;;;;;;;;;;;;-144.99;100.00;52717.16;4972675;28;20326;-66
2022/01/15 08:03:04;;;;;;;;;;;;;;;-144.99;100.00;52704.94;4980938;28;19926;-66
2022/01/15 08:05:30;;;;;;;;;;;;;;;-144.99;100.00;52721.22;4964552;28;19932;-64
2022/01/15 08:07:57;;;;;;;;;;;;;;;-144.99;100.00;52680.47;4977478;28;19927;-64
2022/01/15 08:10:23;;;;;;;;;;;;;;;-144.99;100.00;52713.09;4973121;28;19937;-68
2022/01/15 08:12:50;;;;;;;;;;;;;;;-144.99;100.00;52704.94;4972939;28;19926;-68
2022/01/15 08:15:17;;;;;;;;;;;;;;;-144.99;100.00;52725.31;4973075;28;19969;-69
2022/01/15 08:17:44;;;;;;;;;;;;;;;-144.99;100.00;52717.16;4972727;28;20406;-68
2022/01/15 08:20:13;;;;;;;;;;;;;;;-144.99;100.00;52717.16;4972984;28;19926;-69
2022/01/15 08:22:40;;;;;;;;;;;;;;;-144.99;100.00;52700.84;4973037;28;19926;-69
2022/01/15 08:25:06;;;;;;;;;;;;;;;-144.99;100.00;52741.63;4972342;28;19926;-69
2022/01/15 08:27:33;;;;;;;;;;;;;;;-144.99;100.00;52725.31;4972249;28;19930;-68
2022/01/15 08:29:59;;;;;;;;;;;;;;;-144.99;100.00;52700.84;4972498;28;20405;-68
2022/01/15 08:32:26;;;;;;;;;;;;;;;-144.99;100.00;52709.00;4982853;28;19921;-69
2022/01/15 08:34:52;;;;;;;;;;;;;;;-144.99;100.00;52700.84;4985678;28;19926;-68
2022/01/15 08:37:20;;;;;;;;;;;;;;;-144.99;100.00;52656.00;4992738;28;19926;-67
2022/01/15 08:39:46;;;;;;;;;;;;;;;-144.99;100.00;52717.16;4991516;28;19936;-69
2022/01/15 08:42:12;;;;;;;;;;;;;;;-144.99;100.00;52717.16;4991478;28;19926;-72
2022/01/15 08:44:42;;;;;;;;;;;;;;;-144.99;100.00;52729.38;4983091;28;19931;-74
2022/01/15 08:47:08;;;;;;;;;;;;;;;-144.99;100.00;52713.09;4985669;28;19926;-73
2022/01/15 08:49:34;;;;;;;;;;;;;;;-144.99;100.00;52684.53;4984819;28;20371;-73
2022/01/15 08:52:01;;;;;;;;;;;;;;;-144.99;100.00;52709.00;4972392;28;19933;-73
2022/01/15 08:54:28;;;;;;;;;;;;;;;-144.99;100.00;52692.69;4977640;28;19937;-73
2022/01/15 08:56:55;;;;;;;;;;;;;;;-144.99;100.00;52713.09;4972105;28;20373;-73
2022/01/15 08:59:23;;;;;;;;;;;;;;;-144.99;100.00;52662.13;4971559;28;19933;-73
2022/01/15 09:01:50;;;;;;;;;;;;;;;-144.99;100.00;52723.28;4977052;28;19934;-73
2022/01/15 09:04:16;;;;;;;;;;;;;;;-144.99;100.00;52682.50;4981719;28;20386;-73
2022/01/15 09:06:43;;;;;;;;;;;;;;;-144.99;100.00;52729.38;4979896;28;20022;-73
2022/01/15 09:09:09;;;;;;;;;;;;;;;-144.99;100.00;52706.97;4972134;28;19930;-74
2022/01/15 09:11:37;;;;;;;;;;;;;;;-144.99;100.00;52700.84;4974339;28;19933;-74
2022/01/15 09:14:03;;;;;;;;;;;;;;;-144.99;100.00;52690.66;4985299;28;19950;-74
2022/01/15 09:16:30;;;;;;;;;;;;;;;-144.99;100.00;52721.22;4986030;28;19926;-74
2022/01/15 09:18:57;;;;;;;;;;;;;;;-144.99;100.00;52690.66;4972584;28;19930;-74
2022/01/15 09:21:23;;;;;;;;;;;;;;;-144.99;100.00;52733.47;4969623;28;19934;-73
2022/01/15 09:23:50;;;;;;;;;;;;;;;-144.99;100.00;52741.63;4975463;28;19927;-74
2022/01/15 09:26:25;;;;;;;;;;;;;;;-144.99;100.00;52696.78;4965134;28;19933;-73
2022/01/15 09:31:37;;;;;;;;;;;;;;;-144.99;100.00;52713.09;4979863;28;20412;-73
2022/01/15 09:34:04;;;;;;;;;;;;;;;-144.99;100.00;52692.69;4979382;28;19983;-74
2022/01/15 09:36:30;;;;;;;;;;;;;;;-144.99;100.00;52688.63;4967828;28;19926;-73
2022/01/15 09:38:56;;;;;;;;;;;;;;;-144.99;100.00;52643.78;4971934;28;19983;-73
2022/01/15 09:41:23;;;;;;;;;;;;;;;-144.99;100.00;52692.69;4971725;28;19949;-74
2022/01/15 09:43:50;;;;;;;;;;;;;;;-144.99;100.00;52643.78;4972368;28;19949;-74
2022/01/15 09:46:18;;;;;;;;;;;;;;;-144.99;100.00;52688.63;4972167;28;19926;-74
2022/01/15 09:48:46;;;;;;;;;;;;;;;-144.99;100.00;52702.88;4980714;28;20021;-74
2022/01/15 09:51:13;;;;;;;;;;;;;;;-144.99;100.00;52651.94;4995200;28;19930;-76
2022/01/15 09:53:40;;;;;;;;;;;;;;;-144.99;100.00;52704.94;4996431;28;19937;-75
2022/01/15 09:56:07;;;;;;;;;;;;;;;-144.99;100.00;52647.84;4980716;28;19948;-73
2022/01/15 09:58:33;;;;;;;;;;;;;;;-144.99;100.00;52702.88;4996647;28;19932;-74
2022/01/15 10:01:01;;;;;;;;;;;;;;;-144.99;100.00;52704.94;4996096;28;19934;-74
2022/01/15 10:03:29;;;;;;;;;;;;;;;-144.99;100.00;52670.28;5010297;28;19926;-73
2022/01/15 10:05:55;;;;;;;;;;;;;;;-144.99;100.00;52692.69;4986532;28;19930;-75
2022/01/15 10:08:21;;;;;;;;;;;;;;;-144.99;100.00;52672.31;4996079;28;20416;-75
2022/01/15 10:10:49;;;;;;;;;;;;;;;-144.99;99.39;52672.31;4967442;28;19931;-74
2022/01/15 10:13:17;;;;;;;;;;;;;;;-144.99;98.27;52668.22;4987538;28;19957;-74
2022/01/15 10:15:44;;;;;;;;;;;;;;;-144.99;98.79;52664.16;4967375;28;20041;-74
2022/01/15 10:18:28;;;;;;;;;;;;;;;-144.99;98.44;52647.84;4963488;28;19930;-73
2022/01/15 10:21:09;;;;;;;;;;;;;;;-144.99;96.03;52651.94;4974093;28;19926;-74
2022/01/15 10:23:44;;;;;;;;;;;;;;;-144.99;94.33;52641.72;4975917;28;19971;-74
2022/01/15 10:26:11;;;;;;;;;;;;;;;-144.99;92.61;52643.78;4970993;28;20013;-74
2022/01/15 10:28:48;;;;;;;;;;;;;;;-144.99;90.06;52635.63;4978514;28;19926;-74
2022/01/15 10:31:17;;;;;;;;;;;;;;;-144.99;87.79;52651.94;4986774;28;19971;-73
2022/01/15 10:33:44;;;;;;;;;;;;;;;-144.99;82.60;52590.78;4969700;28;20028;-74
2022/01/15 10:36:19;;;;;;;;;;;;;;;-144.99;82.28;52617.28;4968368;28;19935;-73
2022/01/15 10:38:45;;;;;;;;;;;;;;;-144.99;80.60;52613.19;4981257;28;20387;-73
2022/01/15 10:41:29;;;;;;;;;;;;;;;-144.99;79.92;52621.34;4960147;28;20440;-73
2022/01/15 10:43:55;;;;;;;;;;;;;;;-144.99;78.42;52603.00;4983731;28;19930;-73
2022/01/15 10:46:32;;;;;;;;;;;;;;;-144.99;78.41;52592.81;4978185;28;19948;-73
2022/01/15 10:49:18;;;;;;;;;;;;;;;-144.99;75.13;52501.09;4978723;28;19930;-73
2022/01/15 10:51:46;;;;;;;;;;;;;;;-144.99;67.88;52554.09;4974823;28;20386;-74
2022/01/15 10:54:13;;;;;;;;;;;;;;;-144.99;64.57;52497.00;4979480;28;19946;-74
2022/01/15 10:56:39;;;;;;;;;;;;;;;-144.99;63.40;52541.84;4961091;28;20017;-74
2022/01/15 10:59:08;;;;;;;;;;;;;;;-144.99;61.17;52444.03;4962938;28;19937;-74
2022/01/15 11:01:35;;;;;;;;;;;;;;;-144.99;57.64;52458.28;4969735;28;19937;-74
2022/01/15 11:04:01;;;;;;;;;;;;;;;-144.99;55.44;52429.75;4978224;28;19962;-71
2022/01/15 11:06:45;;;;;;;;;;;;;;;-144.99;52.35;52374.72;4950278;28;19926;-71
2022/01/15 11:09:13;;;;;;;;;;;;;;;-144.99;50.02;52407.31;4957487;28;19949;-71
2022/01/15 11:11:53;;;;;;;;;;;;;;;-144.99;47.71;52370.63;4969659;28;19932;-71
2022/01/15 11:14:19;;;;;;;;;;;;;;;-144.99;46.35;52384.91;4969180;28;19952;-71
2022/01/15 11:16:46;;;;;;;;;;;;;;;-144.99;45.13;52399.19;4956353;28;19926;-71
2022/01/15 11:19:12;;;;;;;;;;;;;;;-144.99;45.01;52374.72;4968786;28;19952;-71
2022/01/15 11:21:39;;;;;;;;;;;;;;;-144.99;43.95;52338.03;4968832;28;19930;-71
2022/01/15 11:24:06;;;;;;;;;;;;;;;-144.99;42.00;52321.72;4967742;28;20283;-71
2022/01/15 11:26:36;;;;;;;;;;;;;;;-144.99;42.05;52338.03;4965325;28;19965;-69
2022/01/15 11:29:03;;;;;;;;;;;;;;;-144.99;41.54;52338.03;4960227;28;20403;-70
2022/01/15 11:31:30;;;;;;;;;;;;;;;-144.99;40.87;52317.66;4968368;28;20520;-70
2022/01/15 11:34:00;;;;;;;;;;;;;;;-144.99;40.20;52313.56;4979706;28;20021;-70
2022/01/15 11:36:31;;;;;;;;;;;;;;;-144.99;39.48;52419.56;4963256;28;20382;-70
2022/01/15 11:38:58;;;;;;;;;;;;;;;-144.99;39.45;52329.88;4968333;28;20469;-70
2022/01/15 11:41:39;;;;;;;;;;;;;;;-144.99;40.23;52374.72;4968504;28;19926;-70
2022/01/15 11:44:06;;;;;;;;;;;;;;;-144.99;39.29;52356.38;4968750;28;19973;-70
2022/01/15 11:46:33;;;;;;;;;;;;;;;-144.99;39.25;52403.25;4968878;28;19927;-70
2022/01/15 11:49:18;;;;;;;;;;;;;;;-144.99;39.79;52427.72;4968388;28;19927;-70
2022/01/15 11:51:45;;;;;;;;;;;;;;;-144.99;39.50;52378.78;4968712;28;19933;-70
2022/01/15 11:54:12;;;;;;;43.60;39.30;;;;;;;-144.99;40.18;52407.31;4967884;28;19927;-70
2022/01/15 11:56:42;;;;;;;;;;;;;;;-144.99;40.04;52391.03;4968175;28;20218;-70
2022/01/15 11:59:23;;;;;;;;;;;;;;;-144.99;39.50;52384.91;4964968;28;19922;-70
2022/01/15 12:01:49;;;;;;;;;;;;;;;-144.99;39.36;52338.03;4964574;28;19922;-70
2022/01/15 12:04:26;;;;;;;;;;;;;;;-144.99;38.62;52336.00;4967511;28;19945;-70
2022/01/15 12:07:19;;;;;;;61.88;52.08;;;;;;;-144.99;37.40;52313.56;4978951;28;24505;-70
2022/01/15 12:09:46;;;;;;;;;;;;;;;-144.99;37.16;52368.59;4963229;28;20217;-69
2022/01/15 12:12:35;;;;;;;;;;;;;;;-144.99;36.89;52321.72;4966734;28;20379;-71
2022/01/15 12:15:04;;;;;;;;;;;;;;;-144.99;36.53;52352.28;4953808;28;20021;-70
2022/01/15 12:17:31;;;;;;;;;;;;;;;-144.99;36.30;52325.81;4949282;28;20399;-70
2022/01/15 12:20:00;;;;;;;74.55;57.13;;;;;;;-144.99;36.15;52358.41;4963609;28;24585;-70
2022/01/15 12:22:36;;;;;;;;;;;;;;;-144.99;36.22;52350.25;4974188;28;20240;-70
2022/01/15 12:25:02;;;;;;;;;;;;;;;-144.99;35.70;52325.81;4966126;28;19937;-69
2022/01/15 12:27:30;;;;;;;;;;;;;;;-144.99;35.62;52346.19;4982340;28;19926;-70
2022/01/15 12:30:02;;;;;;;72.00;56.65;;;;;;;-144.99;35.03;52391.03;4969970;28;24493;-70
2022/01/15 12:32:32;;;;;;;;;;;;;;;-144.99;35.21;52329.88;4971663;28;20616;-70
2022/01/15 12:34:59;;;;;;;;;;;;;;;-144.99;35.08;52350.25;4974195;28;20363;-70
2022/01/15 12:37:26;;;;;;;;;;;;;;;-144.99;35.58;52374.72;4965753;28;19922;-70
2022/01/15 12:39:53;;;;;;;78.35;58.47;;;;;;;-144.99;35.95;52399.19;4966670;28;24518;-70
2022/01/15 12:42:20;;;;;;;;;;;;;;;-144.99;35.97;52366.56;4975081;28;20239;-70